createdAt,value
2023-04-22T00:02:02.801Z,25.48
2023-04-22T00:05:07.858Z,22.15
2023-04-22T00:08:10.520Z,23.20
2023-04-22T00:11:13.130Z,18.48
2023-04-22T00:14:15.726Z,18.15
2023-04-22T00:17:18.342Z,15.05
2023-04-22T00:20:22.408Z,20.75
2023-04-22T00:23:25.026Z,15.82
2023-04-22T00:26:27.594Z,14.63
2023-04-22T00:29:30.182Z,22.77
2023-04-22T00:32:32.735Z,20.50
2023-04-22T00:35:36.598Z,19.15
2023-04-22T00:38:39.164Z,30.58
2023-04-22T00:41:41.691Z,18.25
2023-04-22T00:44:44.223Z,17.38
2023-04-22T00:47:46.855Z,21.73
2023-04-22T00:50:50.831Z,18.10
2023-04-22T00:53:53.398Z,20.98
2023-04-22T00:56:56.191Z,15.15
2023-04-22T00:59:58.737Z,15.05
2023-04-22T01:03:01.502Z,18.80
2023-04-22T01:06:05.608Z,16.17
2023-04-22T01:09:08.189Z,15.45
2023-04-22T01:12:10.719Z,17.92
2023-04-22T01:15:13.229Z,25.13
2023-04-22T01:18:16.203Z,24.02
2023-04-22T01:21:20.089Z,20.60
2023-04-22T01:24:23.974Z,24.17
2023-04-22T01:27:26.566Z,26.88
2023-04-22T01:30:29.113Z,27.08
2023-04-22T01:33:31.799Z,28.00
2023-04-22T01:36:34.784Z,30.30
2023-04-22T01:39:38.983Z,29.10
2023-04-22T01:42:41.664Z,28.73
2023-04-22T01:45:44.239Z,28.33
2023-04-22T01:48:50.364Z,27.90
2023-04-22T01:51:52.952Z,21.52
2023-04-22T01:54:56.853Z,24.90
2023-04-22T01:57:59.423Z,18.52
2023-04-22T02:01:01.993Z,23.00
2023-04-22T02:04:04.524Z,25.58
2023-04-22T02:07:07.023Z,53.50
2023-04-22T02:10:12.327Z,56.75
2023-04-22T02:13:14.892Z,20.98
2023-04-22T02:16:17.441Z,13.68
2023-04-22T02:19:20.022Z,15.73
2023-04-22T02:22:22.654Z,35.00
2023-04-22T02:25:26.940Z,27.70
2023-04-22T02:28:29.514Z,32.88
2023-04-22T02:31:32.199Z,30.42
2023-04-22T02:34:34.765Z,31.58
2023-04-22T02:37:37.426Z,34.40
2023-04-22T02:40:41.358Z,32.72
2023-04-22T02:43:46.466Z,33.63
2023-04-22T02:46:49.097Z,36.53
2023-04-22T02:49:51.713Z,44.95
2023-04-22T02:52:54.335Z,79.07
2023-04-22T02:55:58.331Z,41.03
2023-04-22T02:59:00.871Z,36.58
2023-04-22T03:02:06.516Z,33.22
2023-04-22T03:05:10.224Z,34.95
2023-04-22T03:08:12.772Z,34.58
2023-04-22T03:11:16.707Z,34.45
2023-04-22T03:14:19.287Z,45.90
2023-04-22T03:17:21.960Z,37.03
2023-04-22T03:20:24.551Z,41.47
2023-04-22T03:23:27.118Z,58.53
2023-04-22T03:26:31.038Z,45.95
2023-04-22T03:29:33.585Z,44.42
2023-04-22T03:32:36.149Z,43.08
2023-04-22T03:35:38.739Z,67.32
2023-04-22T03:38:41.269Z,75.15
2023-04-22T03:41:45.138Z,51.90
2023-04-22T03:44:47.727Z,54.65
2023-04-22T03:47:50.309Z,55.53
2023-04-22T03:50:53.090Z,49.53
2023-04-22T03:53:55.674Z,43.45
2023-04-22T03:56:59.563Z,44.53
2023-04-22T04:00:02.104Z,43.70
2023-04-22T04:03:04.951Z,44.50
2023-04-22T04:06:07.673Z,41.53
2023-04-22T04:09:10.924Z,45.47
2023-04-22T04:12:14.837Z,42.63
2023-04-22T04:15:18.894Z,63.40
2023-04-22T04:18:21.576Z,42.75
2023-04-22T04:21:24.174Z,41.03
2023-04-22T04:24:26.816Z,45.63
2023-04-22T04:27:30.725Z,44.45
2023-04-22T04:30:33.629Z,47.25
2023-04-22T04:33:37.784Z,43.10
2023-04-22T04:36:40.351Z,49.58
2023-04-22T04:39:43.434Z,44.28
2023-04-22T04:42:47.447Z,69.28
2023-04-22T04:45:50.010Z,81.80
2023-04-22T04:48:53.942Z,49.05
2023-04-22T04:51:56.473Z,39.25
2023-04-22T04:54:59.036Z,37.30
2023-04-22T04:58:02.940Z,38.42
2023-04-22T05:01:06.171Z,34.83
2023-04-22T05:04:08.885Z,35.30
2023-04-22T05:07:11.574Z,36.00
2023-04-22T05:10:14.483Z,34.38
2023-04-22T05:13:18.353Z,34.50
2023-04-22T05:16:20.997Z,32.58
2023-04-22T05:19:23.665Z,38.67
2023-04-22T05:22:26.187Z,35.78
2023-04-22T05:25:28.754Z,40.78
2023-04-22T05:28:32.674Z,37.67
2023-04-22T05:31:35.211Z,35.65
2023-04-22T05:34:37.746Z,36.05
2023-04-22T05:37:40.493Z,38.65
2023-04-22T05:40:43.088Z,38.75
2023-04-22T05:43:47.292Z,41.17
2023-04-22T05:46:49.799Z,44.40
2023-04-22T05:49:52.585Z,44.97
2023-04-22T05:52:55.087Z,42.25
2023-04-22T05:55:57.589Z,44.95
2023-04-22T05:59:01.516Z,41.72
2023-04-22T06:02:04.167Z,42.83
2023-04-22T06:05:07.861Z,40.47
2023-04-22T06:08:10.626Z,39.80
2023-04-22T06:11:13.217Z,40.58
2023-04-22T06:14:17.124Z,38.22
2023-04-22T06:17:19.682Z,40.20
2023-04-22T06:20:22.486Z,39.60
2023-04-22T06:23:25.035Z,38.95
2023-04-22T06:26:27.685Z,35.90
2023-04-22T06:29:31.633Z,37.17
2023-04-22T06:32:34.198Z,35.35
2023-04-22T06:35:36.729Z,34.85
2023-04-22T06:38:39.279Z,34.88
2023-04-22T06:41:44.281Z,35.35
2023-04-22T06:44:48.228Z,35.38
2023-04-22T06:47:51.252Z,35.15
2023-04-22T06:50:53.792Z,33.70
2023-04-22T06:53:58.204Z,31.85
2023-04-22T06:57:01.557Z,32.90
2023-04-22T07:00:06.089Z,32.90
2023-04-22T07:03:08.757Z,30.88
2023-04-22T07:06:11.389Z,32.42
2023-04-22T07:09:13.905Z,29.05
2023-04-22T07:12:16.872Z,29.80
2023-04-22T07:15:20.836Z,29.13
2023-04-22T07:18:23.407Z,29.55
2023-04-22T07:21:26.185Z,27.38
2023-04-22T07:24:28.717Z,27.70
2023-04-22T07:27:31.288Z,27.02
2023-04-22T07:30:35.296Z,24.27
2023-04-22T07:33:37.892Z,19.67
2023-04-22T07:36:40.426Z,20.83
2023-04-22T07:39:43.013Z,19.13
2023-04-22T07:42:45.575Z,14.73
2023-04-22T07:45:49.445Z,20.77
2023-04-22T07:48:52.050Z,18.63
2023-04-22T07:51:54.638Z,16.10
2023-04-22T07:54:57.189Z,18.35
2023-04-22T07:58:00.845Z,21.13
2023-04-22T08:01:05.237Z,17.38
2023-04-22T08:04:08.414Z,17.70
2023-04-22T08:10:16.732Z,17.65
2023-04-22T08:13:19.341Z,16.20
2023-04-22T08:16:23.342Z,15.88
2023-04-22T08:19:25.943Z,16.15
2023-04-22T08:22:28.495Z,14.98
2023-04-22T08:25:31.471Z,14.02
2023-04-22T08:28:34.000Z,16.73
2023-04-22T08:31:37.927Z,11.65
2023-04-22T08:34:40.862Z,13.48
2023-04-22T08:37:43.558Z,12.73
2023-04-22T08:40:46.144Z,13.85
2023-04-22T08:43:49.126Z,13.90
2023-04-22T08:46:53.266Z,12.95
2023-04-22T08:49:56.223Z,14.05
2023-04-22T08:52:58.776Z,11.35
2023-04-22T08:56:01.330Z,11.73
2023-04-22T08:59:04.231Z,13.15
2023-04-22T09:02:08.693Z,9.77
2023-04-22T09:05:11.519Z,9.95
2023-04-22T09:08:14.038Z,9.18
2023-04-22T09:11:16.581Z,8.43
2023-04-22T09:14:19.817Z,7.95
2023-04-22T09:17:32.105Z,8.63
2023-04-22T09:20:34.707Z,9.00
2023-04-22T09:23:46.477Z,10.57
2023-04-22T09:26:49.262Z,11.18
2023-04-22T09:29:52.338Z,12.23
2023-04-22T09:32:57.040Z,12.00
2023-04-22T09:35:59.668Z,13.13
2023-04-22T09:39:04.974Z,12.10
2023-04-22T09:42:07.483Z,12.60
2023-04-22T09:45:10.601Z,14.00
2023-04-22T09:48:15.142Z,12.68
2023-04-22T09:51:17.778Z,12.15
2023-04-22T09:54:20.428Z,12.05
2023-04-22T09:57:23.089Z,12.80
2023-04-22T10:00:27.036Z,12.73
2023-04-22T10:03:30.930Z,11.43
2023-04-22T10:06:33.534Z,11.82
2023-04-22T10:09:36.261Z,10.27
2023-04-22T10:12:38.872Z,9.98
2023-04-22T10:15:42.347Z,11.00
2023-04-22T10:18:46.224Z,9.60
2023-04-22T10:21:51.474Z,10.77
2023-04-22T10:24:55.995Z,10.20
2023-04-22T10:28:03.199Z,8.60
2023-04-22T10:31:07.460Z,9.73
2023-04-22T10:34:13.042Z,9.88
2023-04-22T10:37:15.767Z,9.38
2023-04-22T10:40:18.845Z,9.38
2023-04-22T10:43:21.364Z,10.18
2023-04-22T10:47:00.958Z,9.70
2023-04-22T10:50:18.562Z,10.27
2023-04-22T10:53:36.134Z,9.32
2023-04-22T10:57:01.791Z,12.70
2023-04-22T11:03:37.716Z,17.88
2023-04-22T11:06:41.722Z,18.92
2023-04-22T11:09:45.417Z,20.25
2023-04-22T11:12:47.994Z,19.60
2023-04-22T11:15:51.116Z,18.75
2023-04-22T11:18:53.806Z,21.25
2023-04-22T11:21:58.581Z,20.75
2023-04-22T11:25:01.578Z,20.40
2023-04-22T11:28:04.486Z,19.95
2023-04-22T11:31:07.778Z,20.77
2023-04-22T11:34:10.470Z,22.48
2023-04-22T11:37:14.358Z,23.15
2023-04-22T11:40:30.002Z,22.55
2023-04-22T11:43:34.278Z,23.92
2023-04-22T11:46:39.373Z,22.42
2023-04-22T11:49:41.960Z,23.55
2023-04-22T11:52:50.184Z,23.52
2023-04-22T11:55:52.925Z,23.13
2023-04-22T11:58:55.447Z,21.50
2023-04-22T12:01:57.994Z,23.25
2023-04-22T12:05:00.653Z,24.58
2023-04-22T12:08:05.496Z,24.70
2023-04-22T12:11:09.327Z,24.45
2023-04-22T12:14:11.884Z,25.27
2023-04-22T12:17:15.527Z,26.33
2023-04-22T12:20:18.149Z,24.67
2023-04-22T12:23:22.077Z,25.85
2023-04-22T12:26:26.881Z,25.73
2023-04-22T12:29:31.722Z,25.80
2023-04-22T12:32:34.343Z,27.92
2023-04-22T12:35:36.876Z,26.15
2023-04-22T12:38:41.306Z,27.50
2023-04-22T12:41:43.905Z,28.33
2023-04-22T12:44:46.830Z,29.15
2023-04-22T12:47:49.648Z,29.45
2023-04-22T12:50:52.267Z,26.83
2023-04-22T12:53:56.121Z,25.27
2023-04-22T12:56:58.827Z,29.27
2023-04-22T13:00:01.450Z,28.17
2023-04-22T13:03:04.190Z,24.55
2023-04-22T13:06:07.048Z,27.90
2023-04-22T13:09:10.981Z,26.45
2023-04-22T13:12:13.549Z,26.58
2023-04-22T13:15:16.843Z,27.27
2023-04-22T13:18:19.537Z,27.65
2023-04-22T13:21:22.178Z,26.38
2023-04-22T13:24:26.396Z,27.75
2023-04-22T13:27:29.691Z,25.42
2023-04-22T13:30:32.305Z,25.67
2023-04-22T13:33:34.803Z,28.17
2023-04-22T13:36:37.346Z,30.25
2023-04-22T13:39:41.404Z,30.08
2023-04-22T13:42:44.412Z,29.05
2023-04-22T13:45:48.251Z,27.58
2023-04-22T13:48:50.923Z,30.98
2023-04-22T13:51:53.496Z,28.08
2023-04-22T13:54:57.366Z,28.98
2023-04-22T13:58:01.106Z,31.38
2023-04-22T14:01:04.158Z,28.48
2023-04-22T14:04:06.912Z,31.48
2023-04-22T14:07:09.493Z,30.25
2023-04-22T14:10:13.724Z,29.75
2023-04-22T14:13:16.275Z,30.25
2023-04-22T14:16:19.737Z,29.55
2023-04-22T14:19:24.188Z,30.95
2023-04-22T14:22:26.833Z,29.02
2023-04-22T14:25:30.731Z,29.88
2023-04-22T14:28:33.273Z,29.85
2023-04-22T14:31:35.873Z,29.48
2023-04-22T14:34:39.083Z,30.38
2023-04-22T14:37:43.422Z,27.60
2023-04-22T14:40:47.321Z,29.30
2023-04-22T14:43:49.891Z,34.97
2023-04-22T14:46:52.477Z,31.88
2023-04-22T14:49:55.076Z,35.15
2023-04-22T14:52:57.715Z,34.38
2023-04-22T14:56:01.571Z,37.10
2023-04-22T14:59:04.161Z,35.53
2023-04-22T15:02:07.182Z,37.70
2023-04-22T15:05:10.065Z,34.03
2023-04-22T15:08:12.637Z,33.20
2023-04-22T15:11:16.574Z,31.80
2023-04-22T15:14:19.156Z,31.05
2023-04-22T15:17:21.817Z,28.55
2023-04-22T15:20:24.494Z,31.40
2023-04-22T15:23:27.035Z,29.23
2023-04-22T15:26:30.949Z,29.15
2023-04-22T15:29:33.491Z,26.65
2023-04-22T15:32:37.045Z,37.22
2023-04-22T15:35:41.256Z,31.13
2023-04-22T15:38:43.770Z,28.20
2023-04-22T15:41:47.718Z,27.42
2023-04-22T15:44:50.442Z,41.97
2023-04-22T15:47:53.880Z,28.48
2023-04-22T15:50:56.398Z,35.67
2023-04-22T15:53:59.191Z,25.75
2023-04-22T15:57:03.525Z,26.42
2023-04-22T16:00:11.863Z,26.25
2023-04-22T16:03:16.258Z,26.45
2023-04-22T16:06:18.922Z,25.08
2023-04-22T16:09:21.494Z,24.65
2023-04-22T16:12:25.412Z,26.13
2023-04-22T16:15:27.991Z,35.83
2023-04-22T16:18:30.578Z,20.60
2023-04-22T16:21:33.866Z,27.23
2023-04-22T16:24:36.588Z,26.60
2023-04-22T16:27:40.620Z,20.63
2023-04-22T16:30:43.228Z,21.65
2023-04-22T16:33:46.213Z,21.80
2023-04-22T16:36:48.792Z,24.05
2023-04-22T16:39:51.492Z,22.50
2023-04-22T16:42:57.158Z,23.30
2023-04-22T16:45:59.934Z,22.85
2023-04-22T16:49:02.485Z,23.40
2023-04-22T16:52:05.030Z,22.30
2023-04-22T16:55:08.613Z,20.40
2023-04-22T16:58:12.588Z,20.52
2023-04-22T17:01:15.158Z,22.77
2023-04-22T17:04:18.207Z,22.38
2023-04-22T17:07:21.079Z,21.58
2023-04-22T17:10:24.649Z,19.98
2023-04-22T17:13:28.556Z,19.33
2023-04-22T17:16:31.094Z,15.70
2023-04-22T17:19:33.686Z,17.42
2023-04-22T17:22:36.257Z,17.50
2023-04-22T17:25:38.794Z,18.52
2023-04-22T17:28:42.693Z,16.73
2023-04-22T17:31:46.010Z,17.48
2023-04-22T17:34:48.733Z,16.95
2023-04-22T17:37:53.457Z,17.15
2023-04-22T17:40:56.079Z,16.15
2023-04-22T17:43:59.971Z,14.98
2023-04-22T17:47:03.972Z,13.38
2023-04-22T17:50:09.141Z,14.35
2023-04-22T17:53:11.750Z,15.18
2023-04-22T17:56:14.263Z,16.40
2023-04-22T17:59:18.750Z,15.10
2023-04-22T18:02:22.077Z,12.88
2023-04-22T18:05:24.826Z,17.20
2023-04-22T18:08:27.477Z,17.85
2023-04-22T18:11:30.033Z,18.48
2023-04-22T18:14:33.919Z,18.52
2023-04-22T18:17:36.470Z,18.20
2023-04-22T18:20:39.049Z,17.77
2023-04-22T18:23:42.324Z,20.70
2023-04-22T18:26:47.027Z,21.55
2023-04-22T18:29:51.320Z,20.58
2023-04-22T18:32:53.954Z,18.00
2023-04-22T18:35:56.576Z,21.17
2023-04-22T18:38:59.092Z,19.92
2023-04-22T18:42:02.241Z,20.85
2023-04-22T18:45:07.520Z,20.63
2023-04-22T18:48:10.104Z,20.17
2023-04-22T18:51:13.448Z,21.63
2023-04-22T18:54:16.030Z,22.23
2023-04-22T18:57:18.628Z,21.52
2023-04-22T19:00:22.587Z,20.65
2023-04-22T19:03:25.398Z,20.83
2023-04-22T19:06:28.920Z,21.00
2023-04-22T19:09:32.261Z,20.48
2023-04-22T19:12:34.851Z,22.13
2023-04-22T19:15:38.765Z,19.13
2023-04-22T19:18:41.454Z,17.65
2023-04-22T19:21:44.073Z,19.42
2023-04-22T19:24:46.841Z,18.13
2023-04-22T19:27:49.437Z,18.77
2023-04-22T19:30:53.555Z,17.92
2023-04-22T19:33:56.170Z,20.33
2023-04-22T19:36:58.730Z,20.80
2023-04-22T19:40:01.321Z,23.90
2023-04-22T19:43:04.189Z,25.00
2023-04-22T19:46:08.174Z,25.55
2023-04-22T19:49:11.309Z,27.27
2023-04-22T19:52:15.486Z,26.95
2023-04-22T19:55:18.378Z,26.27
2023-04-22T19:58:20.983Z,27.23
2023-04-22T20:01:25.506Z,27.02
2023-04-22T20:04:29.789Z,25.98
2023-04-22T20:07:33.188Z,27.15
2023-04-22T20:10:35.875Z,30.35
2023-04-22T20:13:38.879Z,30.65
2023-04-22T20:16:43.434Z,30.08
2023-04-22T20:19:46.255Z,34.35
2023-04-22T20:22:48.780Z,33.20
2023-04-22T20:25:51.630Z,34.92
2023-04-22T20:28:54.624Z,32.20
2023-04-22T20:31:59.071Z,29.27
2023-04-22T20:35:02.159Z,24.70
2023-04-22T20:38:04.805Z,27.40
2023-04-22T20:41:08.399Z,30.67
2023-04-22T20:44:10.956Z,32.17
2023-04-22T20:47:16.341Z,34.00
2023-04-22T20:50:19.001Z,32.88
2023-04-22T20:53:21.597Z,30.70
2023-04-22T20:56:24.832Z,32.10
2023-04-22T20:59:27.607Z,33.25
2023-04-22T21:02:31.589Z,33.08
2023-04-22T21:05:40.613Z,32.30
2023-04-22T21:08:43.141Z,29.88
2023-04-22T21:11:46.116Z,28.52
2023-04-22T21:14:49.265Z,31.08
2023-04-22T21:17:56.394Z,32.90
2023-04-22T21:20:59.759Z,34.95
2023-04-22T21:24:02.719Z,31.83
2023-04-22T21:27:05.795Z,32.15
2023-04-22T21:30:09.875Z,30.20
2023-04-22T21:33:13.737Z,35.78
2023-04-22T21:36:16.269Z,36.65
2023-04-22T21:39:19.132Z,36.38
2023-04-22T21:42:21.631Z,36.90
2023-04-22T21:45:24.169Z,36.05
2023-04-22T21:48:28.133Z,33.40
2023-04-22T21:51:30.799Z,34.58
2023-04-22T21:54:33.390Z,36.75
2023-04-22T21:57:35.929Z,37.88
2023-04-22T22:00:38.683Z,36.85
2023-04-22T22:03:42.654Z,39.92
2023-04-22T22:06:45.631Z,36.15
2023-04-22T22:09:48.149Z,34.10
2023-04-22T22:12:50.740Z,30.70
2023-04-22T22:15:55.405Z,29.52
2023-04-22T22:19:02.331Z,36.53
2023-04-22T22:22:04.905Z,29.75
2023-04-22T22:25:08.788Z,36.60
2023-04-22T22:28:11.386Z,30.58
2023-04-22T22:31:14.603Z,35.72
2023-04-22T22:34:18.445Z,35.53
2023-04-22T22:37:20.975Z,39.65
2023-04-22T22:40:23.557Z,38.05
2023-04-22T22:43:26.677Z,39.42
2023-04-22T22:46:29.315Z,37.72
2023-04-22T22:49:33.527Z,32.38
2023-04-22T22:52:36.253Z,25.02
2023-04-22T22:55:38.817Z,32.45
2023-04-22T22:58:41.329Z,26.98
2023-04-22T23:01:44.059Z,28.40
2023-04-22T23:04:48.079Z,25.23
2023-04-22T23:07:50.639Z,31.52
2023-04-22T23:10:53.178Z,29.20
2023-04-22T23:13:56.231Z,24.95
2023-04-22T23:16:58.828Z,30.85
2023-04-22T23:20:02.804Z,34.25
2023-04-22T23:23:05.359Z,23.67
2023-04-22T23:26:08.729Z,27.33
2023-04-22T23:29:11.720Z,24.95
2023-04-22T23:32:16.337Z,29.70
2023-04-22T23:35:20.332Z,27.60
2023-04-22T23:38:22.922Z,29.55
2023-04-22T23:41:25.555Z,27.17
2023-04-22T23:44:28.092Z,32.83
2023-04-22T23:47:31.252Z,27.33
2023-04-22T23:50:35.545Z,32.30
2023-04-22T23:53:38.403Z,27.45
2023-04-22T23:56:41.769Z,28.27
2023-04-22T23:59:44.939Z,34.30
